createdAt,value
2017-10-21T00:00:16.875Z,3.60
2017-10-21T00:03:42.000Z,5.00
2017-10-21T00:07:07.535Z,3.70
2017-10-21T00:10:32.657Z,5.30
2017-10-21T00:13:57.832Z,5.33
2017-10-21T00:17:23.391Z,4.33
2017-10-21T00:20:48.455Z,2.93
2017-10-21T00:24:13.598Z,5.33
2017-10-21T00:27:40.134Z,3.60
2017-10-21T00:31:05.317Z,6.40
2017-10-21T00:34:30.491Z,2.70
2017-10-21T00:37:55.642Z,4.23
2017-10-21T00:41:20.756Z,4.53
2017-10-21T00:44:46.343Z,4.83
2017-10-21T00:48:11.475Z,8.33
2017-10-21T00:51:36.851Z,5.43
2017-10-21T00:55:02.299Z,3.70
2017-10-21T00:58:28.574Z,5.83
2017-10-21T01:01:54.604Z,4.03
2017-10-21T01:05:20.046Z,2.50
2017-10-21T01:08:45.152Z,6.03
2017-10-21T01:12:10.323Z,5.40
2017-10-21T01:15:47.119Z,3.80
2017-10-21T01:19:12.435Z,3.87
2017-10-21T01:22:38.465Z,2.90
2017-10-21T01:26:05.372Z,5.33
2017-10-21T01:29:30.687Z,4.27
2017-10-21T01:32:55.847Z,3.73
2017-10-21T01:36:21.093Z,5.53
2017-10-21T01:39:46.835Z,4.13
2017-10-21T01:43:13.153Z,4.20
2017-10-21T01:46:41.964Z,4.90
2017-10-21T01:50:08.261Z,2.87
2017-10-21T01:53:33.744Z,2.90
2017-10-21T01:57:00.381Z,3.43
2017-10-21T02:00:26.449Z,6.27
2017-10-21T02:03:51.608Z,3.93
2017-10-21T02:07:34.915Z,5.57
2017-10-21T02:11:01.694Z,4.40
2017-10-21T02:14:28.639Z,3.47
2017-10-21T02:18:04.131Z,2.93
2017-10-21T02:21:29.369Z,3.57
2017-10-21T02:24:54.561Z,4.67
2017-10-21T02:28:20.424Z,4.10
2017-10-21T02:31:45.628Z,4.70
2017-10-21T02:35:10.786Z,2.90
2017-10-21T02:38:37.062Z,4.73
2017-10-21T02:42:02.537Z,3.63
2017-10-21T02:45:29.790Z,3.57
2017-10-21T02:48:55.258Z,5.73
2017-10-21T02:52:20.399Z,2.73
2017-10-21T02:55:46.861Z,2.40
2017-10-21T02:59:12.822Z,3.33
2017-10-21T03:02:39.144Z,4.03
2017-10-21T03:06:04.797Z,5.40
2017-10-21T03:09:30.107Z,4.87
2017-10-21T03:12:55.272Z,2.93
2017-10-21T03:16:22.027Z,3.70
2017-10-21T03:19:47.182Z,3.37
2017-10-21T03:23:12.319Z,5.00
2017-10-21T03:26:37.772Z,2.10
2017-10-21T03:30:02.911Z,4.30
2017-10-21T03:33:30.207Z,2.50
2017-10-21T03:36:55.712Z,3.20
2017-10-21T03:40:20.861Z,2.67
2017-10-21T03:43:46.009Z,5.00
2017-10-21T03:47:13.392Z,3.80
2017-10-21T03:50:38.731Z,2.00
2017-10-21T03:54:03.804Z,2.87
2017-10-21T03:57:41.273Z,5.43
2017-10-21T04:01:06.446Z,3.03
2017-10-21T04:04:31.666Z,4.67
2017-10-21T04:07:58.080Z,2.53
2017-10-21T04:11:23.421Z,3.43
2017-10-21T04:14:49.336Z,5.03
2017-10-21T04:18:15.052Z,4.43
2017-10-21T04:21:40.310Z,4.30
2017-10-21T04:25:06.340Z,6.00
2017-10-21T04:28:31.739Z,7.10
2017-10-21T04:31:57.059Z,4.17
2017-10-21T04:35:22.208Z,3.70
2017-10-21T04:38:47.388Z,3.47
2017-10-21T04:42:13.263Z,5.57
2017-10-21T04:45:43.395Z,6.40
2017-10-21T04:49:08.664Z,4.77
2017-10-21T04:52:33.868Z,3.87
2017-10-21T04:55:59.499Z,6.57
2017-10-21T04:59:25.039Z,2.40
2017-10-21T05:02:50.192Z,3.73
2017-10-21T05:06:19.524Z,2.73
2017-10-21T05:09:45.419Z,3.80
2017-10-21T05:13:10.983Z,2.50
2017-10-21T05:16:39.314Z,3.97
2017-10-21T05:20:04.618Z,3.47
2017-10-21T05:23:29.726Z,5.57
2017-10-21T05:27:07.883Z,4.73
2017-10-21T05:30:33.875Z,4.70
2017-10-21T05:33:59.239Z,2.83
2017-10-21T05:37:25.210Z,5.30
2017-10-21T05:40:50.449Z,2.60
2017-10-21T05:44:15.599Z,8.00
2017-10-21T05:47:41.083Z,2.60
2017-10-21T05:51:06.175Z,6.27
2017-10-21T05:54:31.421Z,4.57
2017-10-21T05:57:58.906Z,7.83
2017-10-21T06:01:24.599Z,6.63
2017-10-21T06:04:49.681Z,6.87
2017-10-21T06:08:21.460Z,5.27
2017-10-21T06:11:46.679Z,3.03
2017-10-21T06:15:12.000Z,4.43
2017-10-21T06:18:48.404Z,5.47
2017-10-21T06:22:13.661Z,7.97
2017-10-21T06:25:38.863Z,6.50
2017-10-21T06:29:11.268Z,3.57
2017-10-21T06:32:36.485Z,6.20
2017-10-21T06:36:02.465Z,4.30
2017-10-21T06:39:27.715Z,6.00
2017-10-21T06:42:52.946Z,5.00
2017-10-21T06:46:25.801Z,5.80
2017-10-21T06:49:50.983Z,8.97
2017-10-21T06:53:16.403Z,5.37
2017-10-21T06:56:42.716Z,5.33
2017-10-21T07:00:07.996Z,5.13
2017-10-21T07:03:41.977Z,3.73
2017-10-21T07:07:07.289Z,4.60
2017-10-21T07:10:32.460Z,5.80
2017-10-21T07:13:58.844Z,5.30
2017-10-21T07:17:24.743Z,3.87
2017-10-21T07:20:49.866Z,8.03
2017-10-21T07:24:16.298Z,6.20
2017-10-21T07:27:41.512Z,7.20
2017-10-21T07:31:07.424Z,6.60
2017-10-21T07:34:33.887Z,4.97
2017-10-21T07:37:59.863Z,4.90
2017-10-21T07:41:24.999Z,4.63
2017-10-21T07:45:01.901Z,3.63
2017-10-21T07:48:27.179Z,2.10
2017-10-21T07:51:52.512Z,4.60
2017-10-21T07:55:17.643Z,4.27
2017-10-21T07:58:44.150Z,4.13
2017-10-21T08:02:09.491Z,6.70
2017-10-21T08:05:35.481Z,3.63
2017-10-21T08:09:00.670Z,3.40
2017-10-21T08:12:25.743Z,4.13
2017-10-21T08:15:51.651Z,2.10
2017-10-21T08:19:16.946Z,2.10
2017-10-21T08:22:44.995Z,2.47
2017-10-21T08:26:11.092Z,5.93
2017-10-21T08:29:36.439Z,3.27
2017-10-21T08:33:05.523Z,2.40
2017-10-21T08:36:30.638Z,2.40
2017-10-21T08:39:55.825Z,4.07
2017-10-21T08:43:26.166Z,2.80
2017-10-21T08:46:51.309Z,3.83
2017-10-21T08:50:16.430Z,2.47
2017-10-21T08:53:43.693Z,4.87
2017-10-21T08:57:09.374Z,6.70
2017-10-21T09:00:34.779Z,6.87
2017-10-21T09:04:01.400Z,3.57
2017-10-21T09:07:26.908Z,3.23
2017-10-21T09:10:52.432Z,5.37
2017-10-21T09:14:18.227Z,6.67
2017-10-21T09:17:43.339Z,11.20
2017-10-21T09:21:08.534Z,13.10
2017-10-21T09:24:34.939Z,16.00
2017-10-21T09:28:00.834Z,16.43
2017-10-21T09:31:25.976Z,14.20
2017-10-21T09:34:52.195Z,14.40
2017-10-21T09:38:22.390Z,15.70
2017-10-21T09:41:48.235Z,15.43
2017-10-21T09:45:14.515Z,14.07
2017-10-21T09:48:40.339Z,13.43
2017-10-21T09:52:05.031Z,13.70
2017-10-21T09:55:33.536Z,11.60
2017-10-21T09:59:00.556Z,19.27
2017-10-21T10:02:26.505Z,12.80
2017-10-21T10:05:53.023Z,10.90
2017-10-21T10:09:18.152Z,10.23
2017-10-21T10:12:43.409Z,9.77
2017-10-21T10:16:09.122Z,6.63
2017-10-21T10:19:34.691Z,8.17
2017-10-21T10:23:01.014Z,5.43
2017-10-21T10:26:27.283Z,7.80
2017-10-21T10:29:52.623Z,4.47
2017-10-21T10:33:17.826Z,8.10
2017-10-21T10:36:43.222Z,11.63
2017-10-21T10:40:08.392Z,4.63
2017-10-21T10:43:40.965Z,9.10
2017-10-21T10:47:06.360Z,3.63
2017-10-21T10:50:31.779Z,5.57
2017-10-21T10:53:56.966Z,6.33
2017-10-21T10:57:23.183Z,10.47
2017-10-21T11:00:48.265Z,19.90
2017-10-21T11:04:16.651Z,16.67
2017-10-21T11:07:42.959Z,7.50
2017-10-21T11:11:08.123Z,9.77
2017-10-21T11:14:37.816Z,8.60
2017-10-21T11:18:03.608Z,19.10
2017-10-21T11:21:40.193Z,3.30
2017-10-21T11:25:06.022Z,7.63
2017-10-21T11:28:32.487Z,13.20
2017-10-21T11:32:00.093Z,41.63
2017-10-21T11:35:26.087Z,24.67
2017-10-21T11:38:55.899Z,26.73
2017-10-21T11:42:21.063Z,21.50
2017-10-21T11:45:48.296Z,13.97
2017-10-21T11:49:15.029Z,12.33
2017-10-21T11:52:42.835Z,19.97
2017-10-21T11:56:08.763Z,19.97
2017-10-21T11:59:44.759Z,13.73
2017-10-21T12:03:09.974Z,7.70
2017-10-21T12:06:35.881Z,6.20
2017-10-21T12:10:06.599Z,8.83
2017-10-21T12:13:31.820Z,5.03
2017-10-21T12:16:57.387Z,4.50
2017-10-21T12:20:25.110Z,6.93
2017-10-21T12:23:51.851Z,6.13
2017-10-21T12:27:17.090Z,5.50
2017-10-21T12:30:44.712Z,5.30
2017-10-21T12:34:10.494Z,10.93
2017-10-21T12:37:36.635Z,5.53
2017-10-21T12:41:02.637Z,4.97
2017-10-21T12:44:30.223Z,3.63
2017-10-21T12:47:56.802Z,4.00
2017-10-21T12:51:33.132Z,2.47
2017-10-21T12:55:02.226Z,2.63
2017-10-21T12:58:35.189Z,2.30
2017-10-21T13:02:00.515Z,4.90
2017-10-21T13:05:25.684Z,4.47
2017-10-21T13:08:55.044Z,4.13
2017-10-21T13:12:21.586Z,1.90
2017-10-21T13:15:46.887Z,1.97
2017-10-21T13:19:13.489Z,3.13
2017-10-21T13:22:39.526Z,4.10
2017-10-21T13:26:04.629Z,4.13
2017-10-21T13:29:32.298Z,4.77
2017-10-21T13:32:57.480Z,2.50
2017-10-21T13:36:24.134Z,4.50
2017-10-21T13:39:49.362Z,3.57
2017-10-21T13:43:14.923Z,3.10
2017-10-21T13:46:40.095Z,3.17
2017-10-21T13:50:07.650Z,3.70
2017-10-21T13:53:33.204Z,3.07
2017-10-21T13:56:59.285Z,3.73
2017-10-21T14:00:25.627Z,3.50
2017-10-21T14:03:50.871Z,3.03
2017-10-21T14:07:16.256Z,2.93
2017-10-21T14:10:42.385Z,7.70
2017-10-21T14:14:08.019Z,2.53
2017-10-21T14:17:35.758Z,5.63
2017-10-21T14:21:04.528Z,2.33
2017-10-21T14:24:30.414Z,2.17
2017-10-21T14:27:55.679Z,7.30
2017-10-21T14:31:21.663Z,2.40
2017-10-21T14:34:47.272Z,5.67
2017-10-21T14:38:14.367Z,6.30
2017-10-21T14:41:55.288Z,2.47
2017-10-21T14:45:21.037Z,3.50
2017-10-21T14:48:46.345Z,5.17
2017-10-21T14:52:14.889Z,7.50
2017-10-21T14:55:46.654Z,5.87
2017-10-21T14:59:12.291Z,2.13
2017-10-21T15:02:42.184Z,4.07
2017-10-21T15:06:30.044Z,6.10
2017-10-21T15:09:55.289Z,9.93
2017-10-21T15:13:21.594Z,3.03
2017-10-21T15:16:48.307Z,2.27
2017-10-21T15:20:13.755Z,3.17
2017-10-21T15:23:39.717Z,2.87
2017-10-21T15:27:06.127Z,2.40
2017-10-21T15:30:31.492Z,2.60
2017-10-21T15:34:05.999Z,3.70
2017-10-21T15:37:32.004Z,2.70
2017-10-21T15:40:57.224Z,4.30
2017-10-21T15:44:22.422Z,3.80
2017-10-21T15:47:48.377Z,2.03
2017-10-21T15:51:22.855Z,8.27
2017-10-21T15:54:49.127Z,1.50
2017-10-21T15:58:14.512Z,4.43
2017-10-21T16:01:44.836Z,2.03
2017-10-21T16:05:10.576Z,2.50
2017-10-21T16:08:50.155Z,6.33
2017-10-21T16:12:37.695Z,6.20
2017-10-21T16:16:08.983Z,4.97
2017-10-21T16:19:37.139Z,4.60
2017-10-21T16:23:05.399Z,7.60
2017-10-21T16:26:38.086Z,6.70
2017-10-21T16:33:54.308Z,9.40
2017-10-21T16:37:22.675Z,4.43
2017-10-21T16:40:58.310Z,7.80
2017-10-21T16:44:31.387Z,6.50
2017-10-21T16:48:02.543Z,7.80
2017-10-21T16:51:31.077Z,7.23
2017-10-21T16:58:43.515Z,8.43
2017-10-21T17:02:09.918Z,5.83
2017-10-21T17:05:39.018Z,7.80
2017-10-21T17:09:05.996Z,3.63
2017-10-21T17:12:35.538Z,8.73
2017-10-21T17:16:02.009Z,8.30
2017-10-21T17:19:33.905Z,4.20
2017-10-21T17:23:04.393Z,4.00
2017-10-21T17:26:34.835Z,13.80
2017-10-21T17:30:01.072Z,4.60
2017-10-21T17:33:28.893Z,4.80
2017-10-21T17:37:08.455Z,5.23
2017-10-21T17:40:36.244Z,9.23
2017-10-21T17:44:06.900Z,4.73
2017-10-21T17:47:33.641Z,6.00
2017-10-21T17:51:00.907Z,12.20
2017-10-21T17:54:36.186Z,5.30
2017-10-21T17:58:06.892Z,2.73
2017-10-21T18:01:34.940Z,8.03
2017-10-21T18:05:07.221Z,4.50
2017-10-21T18:08:34.667Z,5.57
2017-10-21T18:12:06.699Z,6.80
2017-10-21T18:15:33.434Z,4.60
2017-10-21T18:19:02.149Z,3.50
2017-10-21T18:22:31.197Z,13.73
2017-10-21T18:25:57.920Z,5.83
2017-10-21T18:29:23.820Z,4.90
2017-10-21T18:33:02.426Z,4.00
2017-10-21T18:36:28.465Z,8.00
2017-10-21T18:39:55.862Z,10.50
2017-10-21T18:43:23.354Z,15.90
2017-10-21T18:46:49.249Z,8.63
2017-10-21T18:50:15.955Z,8.00
2017-10-21T18:53:50.741Z,13.23
2017-10-21T18:57:16.149Z,7.30
2017-10-21T19:00:42.154Z,3.80
2017-10-21T19:04:08.861Z,7.43
2017-10-21T19:07:38.355Z,7.57
2017-10-21T19:11:07.699Z,6.50
2017-10-21T19:14:38.946Z,5.50
2017-10-21T19:18:06.245Z,8.13
2017-10-21T19:21:39.387Z,7.40
2017-10-21T19:25:06.795Z,3.00
2017-10-21T19:32:11.876Z,7.60
2017-10-21T19:35:37.985Z,3.20
2017-10-21T19:39:12.660Z,7.83
2017-10-21T19:42:41.460Z,4.47
2017-10-21T19:46:07.899Z,5.30
2017-10-21T19:49:38.179Z,3.60
2017-10-21T19:53:03.748Z,5.37
2017-10-21T19:56:30.466Z,5.40
2017-10-21T20:00:00.307Z,2.30
2017-10-21T20:03:25.936Z,3.73
2017-10-21T20:06:55.126Z,4.40
2017-10-21T20:14:14.552Z,7.20
2017-10-21T20:17:45.371Z,3.27
2017-10-21T20:21:13.645Z,3.00
2017-10-21T20:32:38.550Z,2.70
2017-10-21T20:36:07.680Z,4.07
2017-10-21T20:39:38.933Z,5.10
2017-10-21T20:43:06.828Z,4.90
2017-10-21T20:46:40.687Z,4.03
2017-10-21T20:50:15.860Z,3.90
2017-10-21T20:53:42.283Z,5.20
2017-10-21T20:57:09.046Z,2.77
2017-10-21T21:00:37.301Z,3.80
2017-10-21T21:04:04.093Z,6.37
2017-10-21T21:07:32.983Z,3.30
2017-10-21T21:10:59.914Z,3.33
2017-10-21T21:14:27.923Z,4.53
2017-10-21T21:17:53.955Z,4.10
2017-10-21T21:21:19.391Z,6.20
2017-10-21T21:24:50.207Z,2.63
2017-10-21T21:28:15.830Z,5.07
2017-10-21T21:31:41.416Z,5.70
2017-10-21T21:35:07.218Z,2.73
2017-10-21T21:38:33.468Z,3.57
2017-10-21T21:41:59.399Z,3.90
2017-10-21T21:45:25.186Z,4.10
2017-10-21T21:48:50.958Z,2.20
2017-10-21T21:52:16.434Z,10.23
2017-10-21T21:55:42.083Z,4.00
2017-10-21T21:59:07.466Z,7.90
2017-10-21T22:02:34.455Z,5.90
2017-10-21T22:06:00.243Z,2.03
2017-10-21T22:09:25.669Z,3.27
2017-10-21T22:12:51.934Z,2.93
2017-10-21T22:16:18.610Z,5.57
2017-10-21T22:19:44.005Z,3.77
2017-10-21T22:23:10.234Z,3.27
2017-10-21T22:26:35.998Z,2.70
2017-10-21T22:30:01.220Z,3.03
2017-10-21T22:33:26.630Z,6.50
2017-10-21T22:36:52.259Z,3.77
2017-10-21T22:40:17.795Z,3.17
2017-10-21T22:43:43.970Z,3.73
2017-10-21T22:47:09.987Z,2.27
2017-10-21T22:50:35.377Z,5.27
2017-10-21T22:54:01.486Z,4.37
2017-10-21T22:57:28.962Z,5.07
2017-10-21T23:01:16.246Z,3.60
2017-10-21T23:04:41.512Z,1.83
2017-10-21T23:08:07.578Z,4.03
2017-10-21T23:11:33.507Z,3.07
2017-10-21T23:14:58.778Z,7.67
2017-10-21T23:18:25.491Z,4.90
2017-10-21T23:21:51.029Z,6.87
2017-10-21T23:25:16.745Z,2.53
2017-10-21T23:28:42.497Z,3.43
2017-10-21T23:32:08.218Z,3.23
2017-10-21T23:35:34.457Z,3.03
2017-10-21T23:39:01.075Z,3.27
2017-10-21T23:42:26.718Z,1.83
2017-10-21T23:45:53.535Z,1.90
2017-10-21T23:49:19.364Z,5.00
2017-10-21T23:52:44.937Z,2.33
2017-10-21T23:56:10.318Z,2.90
2017-10-21T23:59:36.226Z,3.20
